Impacts METAR Board INFO
IDs:

KMEM - Memphis Intl, TN, US

Updated at: 0853 UTC 19 Nov 2017
Potential Impact None Slight Moderate High
Time18/20Z 18/21Z 18/22Z 18/23Z 19/00Z 19/01Z 19/02Z 19/03Z 19/04Z 19/05Z 19/06Z 19/07Z 19/08Z
VIS10 10 10 10 10 10 10 10 10 10 10 10 10
CIG70 40 44 39 38 -- -- -- -- -- -- -- --
CoverBKNOVCBKNOVCOVCFEWFEWCLRCLRCLRCLRCLRCLR
FltCatVFRVFRVFRVFRVFRVFRVFRVFRVFRVFRVFRVFRVFR
WXVCTS------------------------
WDir220320310320320330320310310320300310310
WSpd16 28 30 21 21 19 13 11 8 9 8 10 6
WGst29 40 43 35 28 26 18 -- -- -- -- -- --
Raw hourly METARs
KMEM 182001Z COR 22016G29KT 10SM VCTS FEW030 BKN070CB BKN090 23/17 A2951 RMK AO2 LTG DSNT W-N CB W MOV E T02330172
KMEM 182054Z 32028G40KT 10SM SCT026 BKN040 OVC050 18/13 A2960 RMK AO2 PK WND 32040/2054 WSHFT 2035 LTG DSNT E-S RAB13E35 TSB14E33 PRESRR SLP020 P0030 60030 T01830133 53013
KMEM 182154Z 31030G43KT 10SM SCT033 BKN044 14/08 A2971 RMK AO2 PK WND 31043/2146 PRESRR SLP058 T01440078
KMEM 182254Z 32021G35KT 10SM BKN039 OVC065 13/06 A2981 RMK AO2 PK WND 31044/2206 SLP092 T01280056
KMEM 182354Z 32021G28KT 10SM OVC038 12/04 A2989 RMK AO2 PK WND 33042/2307 SLP118 60030 T01170044 10244 20117 51097
KMEM 190054Z 33019G26KT 10SM FEW040 10/03 A2996 RMK AO2 PK WND 31027/0002 SLP143 T01000033
KMEM 190154Z 32013G18KT 10SM FEW040 09/03 A3000 RMK AO2 PK WND 34026/0059 SLP157 T00940033
KMEM 190254Z 31011KT 10SM CLR 09/03 A3003 RMK AO2 SLP169 T00890033 51049
KMEM 190354Z 31008KT 10SM CLR 08/03 A3006 RMK AO2 SLP179 T00830028
KMEM 190454Z 32009KT 10SM CLR 08/02 A3008 RMK AO2 SLP186 T00780017
KMEM 190554Z 30008KT 10SM CLR 07/02 A3011 RMK AO2 SLP194 T00670017 10117 20067 402440067 51025
KMEM 190654Z 31010KT 10SM CLR 07/02 A3012 RMK AO2 SLP198 T00670017 $
KMEM 190754Z 31006KT 10SM CLR 06/02 A3012 RMK AO2 SLP200 T00560017